Time;durP1;ratioP1;P1;durP2;ratioP2;P2;SDS_P1;SDS_P2;PMS_P1;PMS_P2;Temp;Humidity;BMP_temperature;BMP_pressure;BME280_temperature;BME280_humidity;BME280_pressure;Samples;Min_cycle;Max_cycle;Signal;HPM_P1;HPM_P2
2021/04/05 00:00:40;;;;;;;10.03;1.90;;;;;;;;;;5113491;28;20024;-56
2021/04/05 00:03:07;;;;;;;10.43;2.77;;;;;;;;;;5113798;28;20390;-56
2021/04/05 00:05:36;;;;;;;16.37;3.60;;;;;;;;;;5113496;28;20455;-56
2021/04/05 00:08:03;;;;;;;10.67;1.80;;;;;;;;;;5113615;28;20020;-56
2021/04/05 00:10:34;;;;;;;7.53;1.50;;;;;;;;;;5113629;28;20053;-56
2021/04/05 00:13:02;;;;;;;9.53;1.90;;;;;;;;;;5113524;28;20435;-56
2021/04/05 00:15:29;;;;;;;5.97;1.67;;;;;;;;;;5113609;28;20095;-56
2021/04/05 00:17:56;;;;;;;9.83;1.90;;;;;;;;;;5113509;28;20054;-56
2021/04/05 00:20:30;;;;;;;10.87;2.50;;;;;;;;;;5112966;28;20120;-56
2021/04/05 00:22:56;;;;;;;9.40;2.53;;;;;;;;;;5113462;28;20024;-56
2021/04/05 00:25:23;;;;;;;5.27;2.17;;;;;;;;;;5113374;28;20026;-56
2021/04/05 00:27:50;;;;;;;6.47;1.57;;;;;;;;;;5113428;28;20031;-56
2021/04/05 00:30:22;;;;;;;13.40;2.20;;;;;;;;;;5113300;28;20027;-56
2021/04/05 00:32:49;;;;;;;10.73;2.10;;;;;;;;;;5113309;28;20020;-56
2021/04/05 00:35:18;;;;;;;7.30;2.10;;;;;;;;;;5113168;28;20049;-56
2021/04/05 00:37:48;;;;;;;7.87;2.50;;;;;;;;;;5113271;28;20092;-56
2021/04/05 00:40:16;;;;;;;3.87;1.30;;;;;;;;;;5113154;28;20545;-56
2021/04/05 00:42:44;;;;;;;5.47;1.10;;;;;;;;;;5113534;28;20023;-55
2021/04/05 00:45:12;;;;;;;5.27;1.20;;;;;;;;;;5113180;28;20133;-56
2021/04/05 00:47:49;;;;;;;5.10;1.63;;;;;;;;;;5113206;28;20110;-56
2021/04/05 00:50:18;;;;;;;7.23;1.43;;;;;;;;;;5113164;28;20028;-56
2021/04/05 00:52:45;;;;;;;4.70;1.77;;;;;;;;;;5113094;28;20507;-56
2021/04/05 00:55:13;;;;;;;6.77;1.40;;;;;;;;;;5113186;28;20520;-56
2021/04/05 00:57:40;;;;;;;2.80;1.17;;;;;;;;;;5113044;28;20573;-56
2021/04/05 01:00:13;;;;;;;4.60;1.80;;;;;;;;;;5112986;28;20378;-56
2021/04/05 01:02:40;;;;;;;5.27;1.77;;;;;;;;;;5112990;28;20024;-56
2021/04/05 01:05:07;;;;;;;8.23;2.10;;;;;;;;;;5113729;28;20526;-56
2021/04/05 01:07:34;;;;;;;6.40;2.13;;;;;;;;;;5117097;28;20023;-56
2021/04/05 01:10:01;;;;;;;11.63;3.17;;;;;;;;;;5116907;28;20521;-56
2021/04/05 01:12:28;;;;;;;13.30;3.50;;;;;;;;;;5116910;28;20428;-55
2021/04/05 01:14:54;;;;;;;5.27;1.87;;;;;;;;;;5117013;28;20019;-56
2021/04/05 01:17:21;;;;;;;5.90;1.80;;;;;;;;;;5116854;28;20024;-55
2021/04/05 01:19:48;;;;;;;6.37;1.60;;;;;;;;;;5116351;27;20050;-56
2021/04/05 01:22:15;;;;;;;5.27;1.97;;;;;;;;;;5116795;28;20085;-55
2021/04/05 01:24:42;;;;;;;6.53;2.00;;;;;;;;;;5116656;28;20039;-55
2021/04/05 01:27:09;;;;;;;5.47;3.10;;;;;;;;;;5116610;28;20032;-57
2021/04/05 01:29:38;;;;;;;4.60;1.53;;;;;;;;;;5116514;28;20027;-57
2021/04/05 01:32:05;;;;;;;3.57;1.30;;;;;;;;;;5116512;28;20024;-57
2021/04/05 01:34:31;;;;;;;5.50;1.70;;;;;;;;;;5116576;28;20039;-57
2021/04/05 01:37:01;;;;;;;5.63;2.23;;;;;;;;;;5116372;28;20459;-57
2021/04/05 01:39:28;;;;;;;7.90;1.83;;;;;;;;;;5116400;28;20127;-57
2021/04/05 01:41:54;;;;;;;5.10;1.70;;;;;;;;;;5116307;28;20036;-57
2021/04/05 01:44:21;;;;;;;10.87;2.13;;;;;;;;;;5116380;28;20496;-56
2021/04/05 01:46:48;;;;;;;9.10;1.90;;;;;;;;;;5116269;28;20418;-57
2021/04/05 01:49:15;;;;;;;5.77;1.97;;;;;;;;;;5116232;28;20122;-57
2021/04/05 01:51:42;;;;;;;7.23;1.87;;;;;;;;;;5116135;28;20028;-57
2021/04/05 01:54:08;;;;;;;6.00;1.57;;;;;;;;;;5116149;28;20467;-57
2021/04/05 01:56:35;;;;;;;3.90;1.60;;;;;;;;;;5116002;28;20364;-57
2021/04/05 01:59:02;;;;;;;4.80;1.50;;;;;;;;;;5116071;28;20058;-57
2021/04/05 02:01:30;;;;;;;5.67;2.10;;;;;;;;;;5115889;28;20032;-57
2021/04/05 02:03:58;;;;;;;5.10;1.90;;;;;;;;;;5115983;28;20024;-57
2021/04/05 02:06:26;;;;;;;7.50;1.70;;;;;;;;;;5115850;28;20452;-57
2021/04/05 02:08:53;;;;;;;4.77;1.27;;;;;;;;;;5115953;28;20501;-57
2021/04/05 02:11:21;;;;;;;4.27;1.50;;;;;;;;;;5115794;28;20040;-57
2021/04/05 02:13:49;;;;;;;5.07;1.57;;;;;;;;;;5115730;28;20035;-56
2021/04/05 02:16:17;;;;;;;2.60;1.10;;;;;;;;;;5115184;28;20093;-57
2021/04/05 02:18:44;;;;;;;8.23;1.33;;;;;;;;;;5114977;28;20023;-56
2021/04/05 02:21:14;;;;;;;6.07;1.50;;;;;;;;;;5115235;28;20593;-57
2021/04/05 02:23:42;;;;;;;2.43;0.83;;;;;;;;;;5115566;28;20538;-57
2021/04/05 02:26:12;;;;;;;3.60;1.40;;;;;;;;;;5115602;28;20037;-57
2021/04/05 02:28:41;;;;;;;6.77;1.30;;;;;;;;;;5115736;28;20028;-57
2021/04/05 02:31:09;;;;;;;2.90;1.20;;;;;;;;;;5115601;28;20024;-56
2021/04/05 02:33:44;;;;;;;4.37;1.50;;;;;;;;;;5115332;28;20070;-56
2021/04/05 02:36:12;;;;;;;5.15;1.60;;;;;;;;;;5115314;28;20035;-57
2021/04/05 02:38:43;;;;;;;11.30;1.77;;;;;;;;;;5115240;28;20400;-57
2021/04/05 02:41:11;;;;;;;5.97;1.30;;;;;;;;;;5115151;28;20042;-57
2021/04/05 02:43:38;;;;;;;5.13;1.20;;;;;;;;;;5115119;28;20024;-57
2021/04/05 02:46:06;;;;;;;8.73;1.90;;;;;;;;;;5115075;28;20024;-57
2021/04/05 02:48:34;;;;;;;3.20;1.30;;;;;;;;;;5115098;28;20020;-57
2021/04/05 02:51:04;;;;;;;4.23;1.30;;;;;;;;;;5115060;28;20055;-56
2021/04/05 02:53:31;;;;;;;4.00;1.50;;;;;;;;;;5114913;28;20102;-56
2021/04/05 02:56:08;;;;;;;6.77;1.30;;;;;;;;;;5114849;28;20034;-57
2021/04/05 02:58:40;;;;;;;8.37;1.63;;;;;;;;;;5096577;28;20498;-57
2021/04/05 03:01:08;;;;;;;4.30;1.67;;;;;;;;;;5114742;28;20059;-56
2021/04/05 03:03:36;;;;;;;5.03;1.40;;;;;;;;;;5114884;28;20015;-57
2021/04/05 03:06:03;;;;;;;4.20;1.30;;;;;;;;;;5114665;28;20032;-56
2021/04/05 03:08:30;;;;;;;4.40;1.20;;;;;;;;;;5114977;28;20024;-56
2021/04/05 03:10:57;;;;;;;3.10;1.10;;;;;;;;;;5114552;28;20035;-57
2021/04/05 03:13:27;;;;;;;5.60;1.00;;;;;;;;;;5114586;28;20122;-56
2021/04/05 03:15:54;;;;;;;2.63;1.10;;;;;;;;;;5114514;28;20038;-57
2021/04/05 03:18:21;;;;;;;4.70;1.40;;;;;;;;;;5114440;28;20081;-56
2021/04/05 03:20:48;;;;;;;3.63;1.53;;;;;;;;;;5113981;28;20043;-56
2021/04/05 03:23:16;;;;;;;8.00;1.40;;;;;;;;;;5114323;28;20383;-56
2021/04/05 03:25:43;;;;;;;5.73;1.60;;;;;;;;;;5114346;28;20027;-56
2021/04/05 03:28:11;;;;;;;6.60;1.47;;;;;;;;;;5114135;28;20038;-56
2021/04/05 03:31:10;;;;;;;3.33;1.30;;;;;;;;;;5114289;28;20081;-56
2021/04/05 03:33:36;;;;;;;5.77;1.47;;;;;;;;;;5058813;28;20028;-56
2021/04/05 03:36:08;;;;;;;8.73;1.90;;;;;;;;;;5114242;28;20505;-56
2021/04/05 03:38:36;;;;;;;5.43;1.80;;;;;;;;;;5114206;28;20072;-56
2021/04/05 03:41:05;;;;;;;5.07;1.40;;;;;;;;;;5113951;28;20028;-56
2021/04/05 03:43:36;;;;;;;6.20;1.43;;;;;;;;;;5114135;28;20058;-56
2021/04/05 03:46:04;;;;;;;4.93;1.83;;;;;;;;;;5113967;28;20031;-56
2021/04/05 03:48:38;;;;;;;4.10;1.57;;;;;;;;;;5113989;28;20566;-56
2021/04/05 03:51:08;;;;;;;5.15;1.55;;;;;;;;;;5113817;28;20477;-56
2021/04/05 03:53:44;;;;;;;3.73;1.50;;;;;;;;;;5113870;28;20402;-56
2021/04/05 03:56:14;;;;;;;4.83;1.50;;;;;;;;;;5113891;28;20035;-56
2021/04/05 03:58:44;;;;;;;6.43;2.40;;;;;;;;;;5095615;28;20019;-56
2021/04/05 04:01:12;;;;;;;8.37;2.33;;;;;;;;;;5113588;28;20031;-56
2021/04/05 04:03:52;;;;;;;4.47;1.70;;;;;;;;;;5113738;28;20030;-55
2021/04/05 04:06:24;;;;;;;4.63;1.57;;;;;;;;;;5113579;28;20024;-55
2021/04/05 04:08:52;;;;;;;3.83;1.40;;;;;;;;;;5113590;28;20023;-55
2021/04/05 04:11:26;;;;;;;4.80;1.63;;;;;;;;;;5113566;28;20026;-55
2021/04/05 04:13:54;;;;;;;5.07;1.38;;;;;;;;;;5113493;28;20421;-55
2021/04/05 04:16:21;;;;;;;4.27;1.47;;;;;;;;;;5113538;28;20031;-56
2021/04/05 04:18:48;;;;;;;4.23;1.27;;;;;;;;;;5113434;28;20039;-56
2021/04/05 04:21:16;;;;;;;6.20;1.90;;;;;;;;;;5112956;28;20475;-56
2021/04/05 04:23:44;;;;;;;3.87;1.43;;;;;;;;;;5113528;28;20107;-57
2021/04/05 04:26:11;;;;;;;5.03;1.53;;;;;;;;;;5113480;28;20043;-57
2021/04/05 04:28:43;;;;;;;2.23;1.27;;;;;;;;;;5113648;28;20026;-56
2021/04/05 04:31:10;;;;;;;5.07;1.40;;;;;;;;;;5095034;28;20448;-56
2021/04/05 04:33:38;;;;;;;3.50;1.30;;;;;;;;;;5113356;28;20020;-56
2021/04/05 04:36:05;;;;;;;5.90;1.50;;;;;;;;;;5113244;28;20050;-57
2021/04/05 04:38:32;;;;;;;4.70;1.60;;;;;;;;;;5113320;28;20031;-56
2021/04/05 04:40:59;;;;;;;2.40;1.27;;;;;;;;;;5115444;28;20035;-56
2021/04/05 04:43:26;;;;;;;4.97;1.40;;;;;;;;;;5117528;28;20027;-57
2021/04/05 04:45:53;;;;;;;8.77;1.53;;;;;;;;;;5117505;28;20027;-56
2021/04/05 04:48:19;;;;;;;6.87;1.93;;;;;;;;;;5117405;28;20030;-56
2021/04/05 04:50:46;;;;;;;5.93;1.30;;;;;;;;;;5117319;28;20032;-56
2021/04/05 04:53:13;;;;;;;7.87;1.37;;;;;;;;;;5117333;28;20024;-56
2021/04/05 04:55:41;;;;;;;3.17;1.00;;;;;;;;;;5117251;28;20100;-56
2021/04/05 04:58:07;;;;;;;6.63;1.43;;;;;;;;;;5117185;28;20020;-56
2021/04/05 05:00:34;;;;;;;5.57;1.50;;;;;;;;;;5116967;28;20031;-56
2021/04/05 05:03:02;;;;;;;5.03;1.50;;;;;;;;;;5117107;28;20055;-56
2021/04/05 05:05:30;;;;;;;7.33;1.40;;;;;;;;;;5117007;28;20024;-56
2021/04/05 05:07:57;;;;;;;7.07;1.63;;;;;;;;;;5117007;28;20052;-56
2021/04/05 05:10:25;;;;;;;6.43;1.23;;;;;;;;;;5116935;28;20031;-56
2021/04/05 05:12:53;;;;;;;5.43;1.40;;;;;;;;;;5116861;28;20072;-56
2021/04/05 05:15:20;;;;;;;4.97;1.43;;;;;;;;;;5117006;28;20385;-56
2021/04/05 05:17:48;;;;;;;7.97;1.53;;;;;;;;;;5116899;28;20023;-56
2021/04/05 05:20:15;;;;;;;3.67;1.20;;;;;;;;;;5116270;27;20050;-56
2021/04/05 05:22:47;;;;;;;3.67;1.17;;;;;;;;;;5116753;28;20747;-56
2021/04/05 05:25:17;;;;;;;5.87;1.33;;;;;;;;;;5116716;28;20260;-56
2021/04/05 05:27:44;;;;;;;5.33;1.17;;;;;;;;;;5116623;28;20285;-56
2021/04/05 05:30:20;;;;;;;4.83;1.30;;;;;;;;;;5116553;28;20032;-56
2021/04/05 05:32:48;;;;;;;8.40;1.53;;;;;;;;;;5116585;28;20248;-56
2021/04/05 05:35:14;;;;;;;8.43;1.73;;;;;;;;;;5117123;28;20256;-56
2021/04/05 05:37:41;;;;;;;4.73;1.30;;;;;;;;;;5116540;28;20603;-56
2021/04/05 05:40:31;;;;;;;4.00;1.37;;;;;;;;;;5116423;28;20284;-56
2021/04/05 05:43:17;;;;;;;2.57;1.43;;;;;;;;;;5116354;28;20278;-56
2021/04/05 05:45:53;;;;;;;5.85;1.23;;;;;;;;;;5116368;28;20609;-56
2021/04/05 05:48:26;;;;;;;4.20;1.33;;;;;;;;;;5116388;28;20471;-56
2021/04/05 05:50:57;;;;;;;9.27;1.50;;;;;;;;;;5116115;28;20346;-56
2021/04/05 05:53:56;;;;;;;3.63;1.40;;;;;;;;;;5116149;28;20248;-56
2021/04/05 05:56:25;;;;;;;4.17;1.20;;;;;;;;;;5060738;28;20272;-56
2021/04/05 05:59:03;;;;;;;5.93;2.00;;;;;;;;;;5116149;28;20302;-56
2021/04/05 06:01:36;;;;;;;6.50;1.50;;;;;;;;;;5115936;28;20284;-56
2021/04/05 06:04:21;;;;;;;4.57;1.30;;;;;;;;;;5116040;28;20292;-56
2021/04/05 06:06:56;;;;;;;3.85;1.50;;;;;;;;;;5115881;28;20255;-56
2021/04/05 06:09:25;;;;;;;5.07;1.80;;;;;;;;;;5115885;28;20024;-56
2021/04/05 06:11:52;;;;;;;5.20;1.40;;;;;;;;;;5115797;28;20080;-56
2021/04/05 06:14:37;;;;;;;7.97;1.80;;;;;;;;;;5097594;28;20402;-56
2021/04/05 06:17:07;;;;;;;4.13;1.48;;;;;;;;;;5115776;28;20332;-56
2021/04/05 06:19:46;;;;;;;4.27;1.27;;;;;;;;;;5115614;28;20051;-56
2021/04/05 06:22:13;;;;;;;2.97;1.20;;;;;;;;;;5115073;28;20284;-56
2021/04/05 06:25:01;;;;;;;6.43;1.10;;;;;;;;;;5115546;28;20244;-56
2021/04/05 06:27:41;;;;;;;3.00;1.40;;;;;;;;;;5115560;28;20418;-56
2021/04/05 06:30:28;;;;;;;2.40;1.10;;;;;;;;;;5115459;28;20236;-56
2021/04/05 06:33:06;;;;;;;2.10;0.90;;;;;;;;;;5115409;28;20777;-56
2021/04/05 06:35:41;;;;;;;3.33;1.30;;;;;;;;;;5115412;28;20252;-56
2021/04/05 06:38:07;;;;;;;;;;;;;;;;;;5115706;28;20279;-56
2021/04/05 06:40:36;;;;;;;4.17;1.40;;;;;;;;;;5115165;28;20002;-56
2021/04/05 06:43:15;;;;;;;4.40;1.17;;;;;;;;;;5115164;28;20264;-56
2021/04/05 06:45:52;;;;;;;6.10;1.30;;;;;;;;;;5115169;28;20264;-56
2021/04/05 06:48:35;;;;;;;2.20;1.23;;;;;;;;;;5115146;28;20240;-56
2021/04/05 06:51:13;;;;;;;5.10;1.27;;;;;;;;;;5115117;28;20252;-56
2021/04/05 06:53:54;;;;;;;3.80;1.67;;;;;;;;;;5115084;28;20263;-56
2021/04/05 06:56:24;;;;;;;2.03;1.20;;;;;;;;;;5114927;28;20264;-56
2021/04/05 06:58:51;;;;;;;5.30;1.43;;;;;;;;;;5114815;28;20256;-56
2021/04/05 07:01:37;;;;;;;4.87;1.20;;;;;;;;;;5114730;28;20280;-56
2021/04/05 07:04:23;;;;;;;3.00;1.30;;;;;;;;;;5114199;28;20252;-56
2021/04/05 07:07:08;;;;;;;6.90;1.30;;;;;;;;;;5114733;28;20247;-56
2021/04/05 07:09:44;;;;;;;3.17;1.20;;;;;;;;;;5114633;28;20028;-56
2021/04/05 07:12:15;;;;;;;3.33;1.20;;;;;;;;;;5114719;28;20023;-56
2021/04/05 07:14:54;;;;;;;4.17;1.10;;;;;;;;;;5114620;28;20333;-56
2021/04/05 07:17:32;;;;;;;2.30;1.10;;;;;;;;;;5114477;28;20653;-56
2021/04/05 07:20:02;;;;;;;1.97;0.80;;;;;;;;;;5113953;28;20244;-56
2021/04/05 07:22:41;;;;;;;1.90;1.00;;;;;;;;;;5114418;28;20284;-56
2021/04/05 07:25:09;;;;;;;3.77;1.30;;;;;;;;;;5114314;28;20244;-56
2021/04/05 07:27:55;;;;;;;2.63;1.30;;;;;;;;;;5114295;28;20260;-56
2021/04/05 07:30:24;;;;;;;2.85;1.13;;;;;;;;;;5114169;28;20627;-56
2021/04/05 07:33:07;;;;;;;4.37;1.83;;;;;;;;;;5114274;28;20124;-56
2021/04/05 07:35:52;;;;;;;1.97;1.00;;;;;;;;;;5114197;28;20259;-56
2021/04/05 07:38:19;;;;;;;2.17;1.05;;;;;;;;;;5114174;28;20580;-56
2021/04/05 07:41:04;;;;;;;2.53;1.20;;;;;;;;;;5114091;28;20016;-56
2021/04/05 07:43:47;;;;;;;3.78;0.95;;;;;;;;;;5114228;28;20313;-56
2021/04/05 07:46:21;;;;;;;4.07;1.03;;;;;;;;;;5114338;28;20023;-56
2021/04/05 07:48:52;;;;;;;3.50;1.07;;;;;;;;;;5113983;28;20256;-56
2021/04/05 07:51:38;;;;;;;4.30;1.50;;;;;;;;;;5113815;28;20247;-56
2021/04/05 07:54:06;;;;;;;3.53;1.20;;;;;;;;;;5096881;28;20352;-56
2021/04/05 07:56:42;;;;;;;1.70;1.00;;;;;;;;;;5113786;28;20240;-56
2021/04/05 07:59:27;;;;;;;1.77;0.80;;;;;;;;;;5113831;28;20275;-56
2021/04/05 08:02:09;;;;;;;5.40;1.52;;;;;;;;;;5113635;28;20051;-56
2021/04/05 08:04:54;;;;;;;2.83;1.10;;;;;;;;;;5113745;28;20079;-56
2021/04/05 08:07:29;;;;;;;2.80;1.02;;;;;;;;;;5113711;28;20256;-56
2021/04/05 08:10:02;;;;;;;2.53;1.10;;;;;;;;;;5113612;28;20034;-56
2021/04/05 08:13:07;;;;;;;3.03;1.17;;;;;;;;;;5113587;28;20345;-56
2021/04/05 08:15:37;;;;;;;2.57;1.10;;;;;;;;;;5010205;28;20263;-56
2021/04/05 08:18:13;;;;;;;2.50;1.13;;;;;;;;;;5010890;28;20330;-53
2021/04/05 08:20:45;;;;;;;5.23;1.20;;;;;;;;;;5068643;28;20288;-53
2021/04/05 08:23:12;;;;;;;2.67;1.00;;;;;;;;;;5113454;28;20328;-53
2021/04/05 08:25:55;;;;;;;2.93;1.50;;;;;;;;;;5113369;28;20675;-53
2021/04/05 08:28:24;;;;;;;2.43;1.20;;;;;;;;;;5113518;28;20295;-53
2021/04/05 08:31:08;;;;;;;4.33;1.07;;;;;;;;;;5113378;28;20240;-53
2021/04/05 08:33:35;;;;;;;5.63;1.37;;;;;;;;;;5113274;28;20252;-53
2021/04/05 08:36:06;;;;;;;2.90;1.23;;;;;;;;;;5113290;28;20256;-53
2021/04/05 08:38:59;;;;;;;2.57;0.97;;;;;;;;;;5113339;28;20252;-53
2021/04/05 08:41:28;;;;;;;3.67;1.50;;;;;;;;;;5108913;28;20324;-53
2021/04/05 08:43:56;;;;;;;3.43;1.50;;;;;;;;;;5113329;28;20266;-53
2021/04/05 08:46:25;;;;;;;2.47;1.10;;;;;;;;;;5113226;28;20260;-53
2021/04/05 08:48:57;;;;;;;2.30;1.10;;;;;;;;;;5113175;28;20742;-53
2021/04/05 08:51:35;;;;;;;3.40;1.20;;;;;;;;;;5113130;28;20289;-53
2021/04/05 08:54:03;;;;;;;1.97;0.90;;;;;;;;;;5113114;28;20283;-53
2021/04/05 08:56:32;;;;;;;2.40;1.40;;;;;;;;;;5113094;28;20271;-53
2021/04/05 08:59:19;;;;;;;1.87;0.90;;;;;;;;;;5113091;28;20304;-53
2021/04/05 09:01:51;;;;;;;3.17;1.47;;;;;;;;;;5113373;28;20608;-52
2021/04/05 09:04:22;;;;;;;2.07;1.07;;;;;;;;;;5113050;28;20263;-53
2021/04/05 09:07:07;;;;;;;3.37;1.00;;;;;;;;;;5112977;28;20301;-53
2021/04/05 09:09:34;;;;;;;2.83;1.30;;;;;;;;;;5112987;28;20237;-53
2021/04/05 09:12:01;;;;;;;1.87;1.17;;;;;;;;;;5112927;28;20418;-53
2021/04/05 09:14:30;;;;;;;3.30;1.33;;;;;;;;;;5112993;28;20300;-53
2021/04/05 09:17:07;;;;;;;4.90;1.37;;;;;;;;;;5113241;28;20256;-53
2021/04/05 09:19:51;;;;;;;3.87;1.53;;;;;;;;;;5112965;28;20248;-53
2021/04/05 09:22:30;;;;;;;4.22;1.13;;;;;;;;;;5112466;28;20655;-53
2021/04/05 09:25:06;;;;;;;2.53;1.30;;;;;;;;;;5112875;28;20040;-53
2021/04/05 09:27:51;;;;;;;3.70;1.00;;;;;;;;;;5115809;28;20307;-53
2021/04/05 09:30:42;;;;;;;3.70;1.20;;;;;;;;;;5116579;28;20248;-53
2021/04/05 09:33:32;;;;;;;2.17;1.27;;;;;;;;;;5116532;28;20032;-53
2021/04/05 09:36:17;;;;;;;3.23;1.17;;;;;;;;;;5116546;28;20339;-53
2021/04/05 09:38:54;;;;;;;1.95;1.13;;;;;;;;;;5116637;28;20255;-53
2021/04/05 09:41:30;;;;;;;2.23;1.23;;;;;;;;;;5116322;28;20064;-53
2021/04/05 09:43:56;;;;;;;8.47;1.57;;;;;;;;;;5116394;28;20252;-53
2021/04/05 09:46:23;;;;;;;3.17;1.30;;;;;;;;;;5116630;28;20252;-53
2021/04/05 09:48:50;;;;;;;4.13;1.27;;;;;;;;;;5116365;28;20636;-53
2021/04/05 09:51:23;;;;;;;4.10;1.27;;;;;;;;;;5116254;28;20301;-53
2021/04/05 09:54:07;;;;;;;3.80;1.67;;;;;;;;;;5116171;28;20276;-53
2021/04/05 09:56:38;;;;;;;2.85;1.40;;;;;;;;;;5116122;28;20252;-53
2021/04/05 09:59:09;;;;;;;2.50;1.30;;;;;;;;;;5116157;28;20026;-53
2021/04/05 10:01:36;;;;;;;2.43;1.13;;;;;;;;;;5115904;28;20280;-53
2021/04/05 10:04:05;;;;;;;3.07;1.33;;;;;;;;;;5116272;28;20248;-53
2021/04/05 10:06:34;;;;;;;2.90;1.43;;;;;;;;;;5115837;28;20588;-53
2021/04/05 10:09:02;;;;;;;2.90;1.20;;;;;;;;;;5116007;28;20252;-53
2021/04/05 10:11:29;;;;;;;4.87;1.30;;;;;;;;;;5115813;28;20244;-53
2021/04/05 10:14:02;;;;;;;4.50;1.33;;;;;;;;;;5115797;28;20271;-53
2021/04/05 10:16:30;;;;;;;5.23;1.70;;;;;;;;;;5116021;28;20255;-53
2021/04/05 10:18:59;;;;;;;4.87;2.03;;;;;;;;;;5115915;28;20247;-53
2021/04/05 10:21:26;;;;;;;2.60;1.20;;;;;;;;;;5115210;28;20299;-53
2021/04/05 10:23:56;;;;;;;4.17;1.93;;;;;;;;;;5115615;28;20323;-53
2021/04/05 10:26:28;;;;;;;5.87;1.90;;;;;;;;;;5115663;28;20256;-53
2021/04/05 10:28:55;;;;;;;3.87;1.20;;;;;;;;;;5115484;28;20335;-53
2021/04/05 10:31:24;;;;;;;2.77;1.50;;;;;;;;;;5115591;28;20316;-53
2021/04/05 10:34:00;;;;;;;4.67;1.40;;;;;;;;;;5115412;28;20742;-53
2021/04/05 10:36:27;;;;;;;3.53;1.20;;;;;;;;;;5115535;28;20239;-53
2021/04/05 10:38:54;;;;;;;3.83;1.63;;;;;;;;;;5114389;28;20252;-53
2021/04/05 10:41:22;;;;;;;4.30;1.40;;;;;;;;;;5115226;28;20286;-53
2021/04/05 10:43:56;;;;;;;6.37;2.03;;;;;;;;;;5115556;28;20327;-53
2021/04/05 10:46:26;;;;;;;4.80;2.10;;;;;;;;;;5115270;28;20314;-53
2021/04/05 10:48:58;;;;;;;6.50;1.87;;;;;;;;;;5115177;28;20248;-53
2021/04/05 10:51:27;;;;;;;5.97;2.10;;;;;;;;;;5115106;28;20263;-53
2021/04/05 10:54:06;;;;;;;3.57;1.63;;;;;;;;;;5096819;28;20256;-53
2021/04/05 10:56:35;;;;;;;7.93;2.07;;;;;;;;;;5114981;28;20274;-53
2021/04/05 10:59:04;;;;;;;7.27;2.30;;;;;;;;;;5115258;28;20260;-53
2021/04/05 11:01:32;;;;;;;10.17;2.43;;;;;;;;;;5114698;28;20288;-53
2021/04/05 11:04:00;;;;;;;5.63;1.40;;;;;;;;;;5114803;28;20252;-53
2021/04/05 11:06:29;;;;;;;6.83;2.30;;;;;;;;;;5114636;28;20254;-53
2021/04/05 11:08:56;;;;;;;42.67;6.27;;;;;;;;;;5114697;28;20259;-53
2021/04/05 11:11:28;;;;;;;9.03;3.07;;;;;;;;;;5114593;28;20343;-53
2021/04/05 11:13:58;;;;;;;4.20;1.77;;;;;;;;;;5114576;28;20236;-53
2021/04/05 11:16:25;;;;;;;8.40;2.60;;;;;;;;;;5114617;28;20627;-53
2021/04/05 11:18:57;;;;;;;6.20;2.47;;;;;;;;;;5114506;28;20773;-53
2021/04/05 11:21:25;;;;;;;9.47;3.27;;;;;;;;;;5113985;27;20646;-52
2021/04/05 11:23:56;;;;;;;5.47;2.83;;;;;;;;;;5114438;28;20301;-53
2021/04/05 11:26:30;;;;;;;8.67;2.23;;;;;;;;;;5114560;28;20259;-53
2021/04/05 11:28:59;;;;;;;10.60;2.10;;;;;;;;;;5114327;28;20240;-53
2021/04/05 11:31:26;;;;;;;3.50;1.50;;;;;;;;;;5114185;28;20260;-53
2021/04/05 11:33:55;;;;;;;6.77;2.03;;;;;;;;;;5114151;28;20248;-53
2021/04/05 11:36:22;;;;;;;5.73;1.63;;;;;;;;;;5114184;28;20765;-53
2021/04/05 11:38:50;;;;;;;4.70;2.07;;;;;;;;;;5114207;28;20255;-53
2021/04/05 11:41:18;;;;;;;5.87;1.50;;;;;;;;;;5114047;28;20354;-52
2021/04/05 11:43:49;;;;;;;7.00;2.00;;;;;;;;;;5114103;28;20275;-53
2021/04/05 11:46:16;;;;;;;4.23;1.73;;;;;;;;;;5113972;28;20245;-52
2021/04/05 11:48:43;;;;;;;3.90;1.70;;;;;;;;;;5113912;28;20742;-52
2021/04/05 11:51:12;;;;;;;3.23;1.70;;;;;;;;;;5113880;28;20309;-53
2021/04/05 11:53:54;;;;;;;3.43;1.70;;;;;;;;;;5113895;28;20317;-52
2021/04/05 11:56:24;;;;;;;4.57;1.57;;;;;;;;;;5113866;28;20252;-53
2021/04/05 11:59:08;;;;;;;3.77;1.80;;;;;;;;;;5113847;28;20604;-53
2021/04/05 12:01:45;;;;;;;6.27;2.03;;;;;;;;;;5095394;28;20824;-52
2021/04/05 12:04:17;;;;;;;6.67;1.50;;;;;;;;;;5113679;28;20248;-52
2021/04/05 12:06:58;;;;;;;5.63;1.63;;;;;;;;;;5113702;28;20739;-52
2021/04/05 12:09:51;;;;;;;3.20;1.50;;;;;;;;;;5113663;28;20258;-53
2021/04/05 12:12:37;;;;;;;5.60;2.03;;;;;;;;;;5109421;28;20260;-52
2021/04/05 12:15:05;;;;;;;7.37;1.97;;;;;;;;;;5114214;28;20260;-52
2021/04/05 12:17:32;;;;;;;3.60;1.50;;;;;;;;;;5113580;28;20731;-52
2021/04/05 12:20:00;;;;;;;5.77;1.70;;;;;;;;;;5113268;28;20291;-53
2021/04/05 12:22:28;;;;;;;5.07;1.90;;;;;;;;;;5113114;28;20299;-53
2021/04/05 12:24:56;;;;;;;3.03;1.60;;;;;;;;;;5113730;28;20264;-53
2021/04/05 12:27:34;;;;;;;7.93;1.80;;;;;;;;;;5113497;28;20305;-53
2021/04/05 12:30:03;;;;;;;3.97;1.80;;;;;;;;;;5113328;28;20259;-52
2021/04/05 12:32:30;;;;;;;7.83;1.80;;;;;;;;;;5113324;28;20254;-54
2021/04/05 12:34:58;;;;;;;12.00;2.57;;;;;;;;;;5113380;28;20291;-55
2021/04/05 12:37:26;;;;;;;9.30;2.60;;;;;;;;;;5113275;28;20252;-54
2021/04/05 12:39:54;;;;;;;4.60;1.93;;;;;;;;;;5113321;28;20256;-55
2021/04/05 12:42:21;;;;;;;6.07;1.77;;;;;;;;;;5113220;28;20295;-55
2021/04/05 12:44:59;;;;;;;9.83;2.93;;;;;;;;;;5113222;28;20248;-54
2021/04/05 12:47:34;;;;;;;3.60;1.77;;;;;;;;;;5113154;28;20342;-55
2021/04/05 12:50:01;;;;;;;;;;;;;;;;;;5113931;28;20585;-55
2021/04/05 12:52:29;;;;;;;4.50;1.53;;;;;;;;;;5113282;28;20370;-54
2021/04/05 12:54:56;;;;;;;7.40;2.27;;;;;;;;;;5113152;28;20255;-54
2021/04/05 12:57:31;;;;;;;10.93;2.40;;;;;;;;;;5113141;28;20746;-54
2021/04/05 12:59:58;;;;;;;6.18;2.58;;;;;;;;;;5113082;28;20370;-54
2021/04/05 13:02:25;;;;;;;6.17;2.07;;;;;;;;;;5116044;28;20024;-54
2021/04/05 13:04:55;;;;;;;5.87;2.20;;;;;;;;;;5117132;28;20256;-54
2021/04/05 13:07:41;;;;;;;12.63;3.90;;;;;;;;;;5117251;28;20348;-54
2021/04/05 13:10:15;;;;;;;21.70;5.37;;;;;;;;;;5099933;28;20290;-55
2021/04/05 13:12:44;;;;;;;7.83;3.73;;;;;;;;;;5117075;28;20533;-54
2021/04/05 13:15:18;;;;;;;9.40;3.03;;;;;;;;;;5116931;28;20331;-55
2021/04/05 13:17:54;;;;;;;12.13;2.58;;;;;;;;;;5116993;28;20252;-54
2021/04/05 13:20:22;;;;;;;15.50;3.03;;;;;;;;;;5116781;28;20110;-55
2021/04/05 13:22:58;;;;;;;7.83;2.10;;;;;;;;;;5116489;27;20295;-55
2021/04/05 13:25:29;;;;;;;11.93;2.63;;;;;;;;;;5116783;28;20328;-55
2021/04/05 13:27:58;;;;;;;9.00;2.50;;;;;;;;;;5116722;28;20308;-55
2021/04/05 13:30:30;;;;;;;5.20;3.00;;;;;;;;;;5116615;28;20255;-55
2021/04/05 13:32:58;;;;;;;5.30;2.90;;;;;;;;;;5116691;28;20308;-55
2021/04/05 13:35:26;;;;;;;7.70;2.97;;;;;;;;;;5116981;28;20244;-55
2021/04/05 13:37:54;;;;;;;9.03;2.57;;;;;;;;;;5116848;28;20260;-55
2021/04/05 13:40:25;;;;;;;3.87;1.83;;;;;;;;;;5116339;28;20240;-55
2021/04/05 13:42:54;;;;;;;7.07;2.43;;;;;;;;;;5116484;28;20660;-55
2021/04/05 13:45:27;;;;;;;4.83;2.80;;;;;;;;;;5116763;28;20275;-55
2021/04/05 13:47:56;;;;;;;8.90;3.30;;;;;;;;;;5116303;28;20248;-55
2021/04/05 13:50:27;;;;;;;8.60;2.60;;;;;;;;;;5116248;28;20248;-55
2021/04/05 13:52:56;;;;;;;8.70;2.80;;;;;;;;;;5116317;28;20277;-55
2021/04/05 13:55:33;;;;;;;4.60;2.13;;;;;;;;;;5116218;28;20745;-56
2021/04/05 13:58:08;;;;;;;3.97;2.00;;;;;;;;;;5116323;28;20418;-56
2021/04/05 14:00:35;;;;;;;7.15;2.38;;;;;;;;;;5115915;28;20312;-55
2021/04/05 14:03:10;;;;;;;8.60;1.80;;;;;;;;;;5116148;28;20031;-55
2021/04/05 14:05:38;;;;;;;5.15;2.03;;;;;;;;;;5115876;28;20011;-56
2021/04/05 14:08:08;;;;;;;8.30;2.30;;;;;;;;;;5115949;28;20023;-56
2021/04/05 14:10:36;;;;;;;5.67;2.40;;;;;;;;;;5116255;28;20012;-56
2021/04/05 14:13:03;;;;;;;10.70;2.20;;;;;;;;;;5114531;28;20078;-56
2021/04/05 14:15:30;;;;;;;8.40;2.50;;;;;;;;;;5115812;28;20363;-56
2021/04/05 14:18:05;;;;;;;5.33;2.23;;;;;;;;;;5116122;28;20024;-56
2021/04/05 14:20:37;;;;;;;5.18;1.88;;;;;;;;;;5115481;28;20059;-56
2021/04/05 14:23:13;;;;;;;15.37;2.47;;;;;;;;;;5113943;28;20039;-56
2021/04/05 14:25:52;;;;;;;8.77;2.40;;;;;;;;;;5115625;28;20020;-56
2021/04/05 14:28:25;;;;;;;12.63;2.30;;;;;;;;;;5115580;28;20107;-56
2021/04/05 14:30:57;;;;;;;6.57;2.20;;;;;;;;;;5115421;28;20035;-56
2021/04/05 14:33:28;;;;;;;10.33;1.53;;;;;;;;;;5115561;28;20482;-56
2021/04/05 14:36:00;;;;;;;5.43;1.60;;;;;;;;;;5115409;28;20032;-56
2021/04/05 14:38:28;;;;;;;6.23;1.50;;;;;;;;;;5115377;28;20076;-56
2021/04/05 14:41:08;;;;;;;5.50;1.23;;;;;;;;;;5115168;28;20111;-56
2021/04/05 14:43:37;;;;;;;4.47;1.43;;;;;;;;;;5115462;28;20367;-56
2021/04/05 14:46:06;;;;;;;5.03;1.60;;;;;;;;;;5115181;28;20036;-56
2021/04/05 14:48:33;;;;;;;6.67;1.60;;;;;;;;;;5115182;28;20394;-56
2021/04/05 14:51:02;;;;;;;7.67;2.33;;;;;;;;;;5115145;28;20032;-56
2021/04/05 14:53:39;;;;;;;4.90;1.70;;;;;;;;;;5115094;28;20031;-56
2021/04/05 14:56:09;;;;;;;6.43;1.53;;;;;;;;;;5115065;28;20133;-56
2021/04/05 14:58:36;;;;;;;6.43;1.80;;;;;;;;;;5115047;28;20094;-56
2021/04/05 15:01:12;;;;;;;3.83;1.50;;;;;;;;;;5114768;28;20036;-56
2021/04/05 15:03:40;;;;;;;4.10;1.33;;;;;;;;;;5115019;28;20034;-56
2021/04/05 15:06:11;;;;;;;5.40;2.43;;;;;;;;;;5114898;28;20124;-57
2021/04/05 15:08:43;;;;;;;7.93;1.80;;;;;;;;;;5114718;28;20359;-56